Skip Navigation Links
NOAA logo - Click to go to the NOAA homepage
NOAA's National Weather Service
Alaska Aviation Weather Unit
  NWS logo - Click to go to the NWS homepage
Left Navbar Graphic     02 AKDT = 10 GMT

   
NOAA is celebrating 200 years of science, service, and stewardship. Visit the NOAA 200th celebration Web site to learn more.
USA.gov is the U.S. Government's official Web portal to all Federal, state and local government Web resources and services.
Facebook
NWS on Facebook

AAWU Home :: Display TAF Add Bookmark
METAR PAPO 270456Z AUTO 36004KT 10SM CLR M17/M20 A3004 RMK AO2 SLP173
     T11671200 FZRANO=

METAR PAPO 270556Z AUTO 34003KT 10SM CLR M18/M21 A3004 RMK AO2 SLP172
     60000 T11831206 11139 21189 56004 FZRANO=

METAR PAPO 270656Z AUTO 34005KT 10SM CLR M19/M22 A3004 RMK AO2
 SLP172 T11941217 FZRANO=

METAR PAPO 270756Z AUTO 36004KT 10SM CLR M20/M22 A3003 RMK AO2 SLP169
     T12001222 FZRANO=

METAR PAPO 270856Z AUTO 04007KT 10SM CLR M21/M23 A3003 RMK AO2 SLP169
     T12061228 411391239 58004 FZRANO=

METAR PAPO 270956Z AUTO 35003KT 10SM CLR M21/M23 A3002 RMK AO2 SLP167
     T12111233 FZRANO=


NOAA's National Weather Service
Alaska Aviation Weather Unit
6930 Sand Lake Road
Anchorage, AK 99502-1845
Disclaimer
Credits
Glossary
Privacy Policy
About Us
Career Opportunities
Contact AAWU Internet Services Site last modified: April, 17th 2012